Time;durP1;ratioP1;P1;durP2;ratioP2;P2;SDS_P1;SDS_P2;PMS_P1;PMS_P2;Temp;Humidity;BMP_temperature;BMP_pressure;BME280_temperature;BME280_humidity;BME280_pressure;Samples;Min_cycle;Max_cycle;Signal;HPM_P1;HPM_P2
2024/02/07 00:00:47;;;;;;;8.43;1.00;;;;;;;10.10;79.04;100579.63;5090730;28;20473;-50
2024/02/07 00:03:13;;;;;;;5.97;1.13;;;;;;;9.68;79.23;100584.34;5091047;28;20537;-47
2024/02/07 00:05:38;;;;;;;8.40;1.30;;;;;;;9.68;79.76;100584.34;5090847;28;20046;-50
2024/02/07 00:08:04;;;;;;;6.50;1.02;;;;;;;9.62;80.59;100584.28;5090171;28;20063;-51
2024/02/07 00:10:29;;;;;;;7.63;0.82;;;;;;;10.02;79.10;100577.78;5089448;28;20071;-48
2024/02/07 00:12:54;;;;;;;9.25;1.00;;;;;;;10.02;78.85;100590.81;5090056;28;20057;-49
2024/02/07 00:15:20;;;;;;;7.55;0.85;;;;;;;9.84;79.25;100585.41;5090695;28;20059;-49
2024/02/07 00:17:46;;;;;;;5.15;0.77;;;;;;;9.95;78.92;100586.38;5089628;28;20036;-48
2024/02/07 00:20:12;;;;;;;4.68;0.90;;;;;;;10.11;78.39;100588.31;5090772;28;20600;-52
2024/02/07 00:22:38;;;;;;;4.93;0.90;;;;;;;9.92;78.70;100594.19;5090413;28;20028;-50
2024/02/07 00:25:04;;;;;;;6.72;0.82;;;;;;;10.04;78.63;100599.53;5089915;28;20051;-51
2024/02/07 00:27:29;;;;;;;11.55;1.08;;;;;;;10.30;77.79;100594.63;5090231;28;20131;-49
2024/02/07 00:29:54;;;;;;;5.40;1.05;;;;;;;9.99;79.28;100596.00;5089412;28;20425;-50
2024/02/07 00:32:20;;;;;;;5.43;0.90;;;;;;;9.57;80.33;100592.03;5090044;28;20032;-51
2024/02/07 00:34:45;;;;;;;7.55;1.13;;;;;;;10.05;79.49;100596.06;5089728;28;20109;-49
2024/02/07 00:37:11;;;;;;;9.32;0.95;;;;;;;10.33;78.87;100592.03;5090123;28;20035;-48
2024/02/07 00:39:37;;;;;;;8.57;1.30;;;;;;;10.30;78.47;100590.28;5089915;28;20058;-50
2024/02/07 00:42:03;;;;;;;5.65;0.95;;;;;;;9.95;79.38;100581.19;5089475;28;20523;-49
2024/02/07 00:44:28;;;;;;;6.38;0.93;;;;;;;10.10;79.24;100586.56;5090233;28;20115;-50
2024/02/07 00:46:53;;;;;;;7.43;0.85;;;;;;;9.29;79.90;100592.50;5089092;28;20028;-47
2024/02/07 00:49:19;;;;;;;7.10;0.85;;;;;;;9.66;79.83;100581.72;5089560;28;20115;-53
2024/02/07 00:51:44;;;;;;;7.95;0.98;;;;;;;9.44;79.63;100591.84;5089518;28;20032;-51
2024/02/07 00:54:10;;;;;;;8.02;0.90;;;;;;;8.94;80.80;100595.47;5090358;28;20043;-47
2024/02/07 00:56:35;;;;;;;8.20;1.20;;;;;;;9.34;78.63;100585.63;5090204;28;20547;-47
2024/02/07 00:59:01;;;;;;;5.88;1.00;;;;;;;9.60;77.78;100584.25;5087883;28;20032;-48
2024/02/07 01:01:26;;;;;;;6.55;1.10;;;;;;;9.49;77.74;100588.44;5090047;28;20040;-51
2024/02/07 01:03:51;;;;;;;5.25;1.20;;;;;;;9.38;78.26;100591.75;5089488;28;20055;-48
2024/02/07 01:06:17;;;;;;;10.40;1.10;;;;;;;9.68;77.71;100586.97;5090150;28;20032;-49
2024/02/07 01:08:43;;;;;;;8.55;1.27;;;;;;;9.56;78.09;100586.81;5088150;28;20498;-47
2024/02/07 01:11:09;;;;;;;7.72;1.10;;;;;;;9.20;79.02;100595.00;5089519;28;20402;-47
2024/02/07 01:13:34;;;;;;;9.77;0.98;;;;;;;9.57;78.42;100586.84;5089724;28;20031;-46
2024/02/07 01:15:59;;;;;;;8.57;1.00;;;;;;;9.62;77.81;100584.28;5089161;28;20032;-47
2024/02/07 01:18:25;;;;;;;9.20;1.02;;;;;;;9.40;78.65;100577.91;5089038;28;20055;-47
2024/02/07 01:20:50;;;;;;;6.50;0.98;;;;;;;8.99;79.86;100585.13;5089348;28;20041;-47
2024/02/07 01:23:15;;;;;;;5.35;0.80;;;;;;;9.53;78.71;100574.63;5090223;28;20028;-46
2024/02/07 01:25:42;;;;;;;10.68;1.00;;;;;;;9.81;77.68;100580.16;5089260;28;20047;-47
2024/02/07 01:28:08;;;;;;;9.52;1.00;;;;;;;9.62;78.30;100581.69;5088691;28;20063;-44
2024/02/07 01:30:34;;;;;;;5.82;0.98;;;;;;;9.43;78.90;100593.56;5088007;28;20397;-50
2024/02/07 01:32:59;;;;;;;8.73;0.90;;;;;;;9.26;79.94;100592.47;5088558;28;20398;-49
2024/02/07 01:35:26;;;;;;;11.27;1.10;;;;;;;9.15;80.59;100597.50;5088964;28;20036;-48
2024/02/07 01:37:52;;;;;;;10.48;1.05;;;;;;;9.30;79.50;100597.72;5088563;28;20040;-48
2024/02/07 01:40:17;;;;;;;7.90;1.02;;;;;;;9.32;79.72;100588.22;5089111;28;20044;-47
2024/02/07 01:42:43;;;;;;;10.52;1.10;;;;;;;9.26;79.55;100589.88;5088791;28;20036;-46
2024/02/07 01:45:28;;;;;;;7.78;1.25;;;;;;;9.19;80.47;100601.03;5089231;28;20036;-52
2024/02/07 01:47:54;;;;;;;8.57;1.08;;;;;;;9.61;79.04;100590.34;5088578;28;20039;-47
2024/02/07 01:50:20;;;;;;;10.27;0.90;;;;;;;9.48;79.07;100596.22;5089336;28;20552;-51
2024/02/07 01:52:47;;;;;;;10.05;0.95;;;;;;;9.23;79.40;100598.50;5088901;28;20032;-46
2024/02/07 01:55:14;;;;;;;9.15;1.17;;;;;;;9.58;78.60;100585.94;5089353;28;20055;-48
2024/02/07 01:57:40;;;;;;;4.47;0.90;;;;;;;9.25;80.07;100594.19;5089389;28;20028;-50
2024/02/07 02:00:07;;;;;;;9.05;0.80;;;;;;;9.43;78.99;100600.50;5088050;28;20102;-47
2024/02/07 02:02:33;;;;;;;9.55;0.80;;;;;;;9.07;80.28;100603.44;5089078;28;20043;-49
2024/02/07 02:04:58;;;;;;;8.45;1.02;;;;;;;9.16;79.21;100612.25;5088434;28;20119;-48
2024/02/07 02:07:25;;;;;;;8.27;1.10;;;;;;;9.09;80.15;100613.00;5088961;28;20589;-48
2024/02/07 02:09:50;;;;;;;14.10;1.13;;;;;;;9.15;80.10;100614.84;5088412;28;20520;-50
2024/02/07 02:12:17;;;;;;;7.32;1.42;;;;;;;8.99;80.17;100623.25;5089291;28;20036;-47
2024/02/07 02:14:43;;;;;;;10.68;1.30;;;;;;;9.02;80.14;100624.19;5088639;28;20545;-49
2024/02/07 02:17:08;;;;;;;7.88;0.98;;;;;;;9.37;79.32;100622.09;5088900;28;20024;-47
2024/02/07 02:19:36;;;;;;;8.27;0.95;;;;;;;9.14;79.66;100634.78;5088752;28;20035;-45
2024/02/07 02:22:33;;;;;;;7.35;0.90;;;;;;;8.92;79.32;100620.56;5086908;28;20035;-50
2024/02/07 02:25:17;;;;;;;6.93;0.88;;;;;;;8.78;80.05;100634.19;5088421;28;20039;-47
2024/02/07 02:28:17;;;;;;;6.50;1.00;;;;;;;8.19;81.01;100633.06;5087348;28;20553;-46
2024/02/07 02:30:50;;;;;;;5.97;0.80;;;;;;;8.59;79.57;100633.00;5088542;28;20433;-48
2024/02/07 02:33:18;;;;;;;8.30;0.70;;;;;;;8.98;78.28;100632.78;5088854;28;20032;-48
2024/02/07 02:35:49;;;;;;;6.28;0.80;;;;;;;8.96;77.08;100635.34;5101069;22;20063;-53
2024/02/07 02:38:15;;;;;;;4.47;0.80;;;;;;;8.95;77.28;100640.53;5088690;28;20028;-51
2024/02/07 02:40:41;;;;;;;7.15;1.00;;;;;;;8.69;78.06;100645.31;5088100;28;20042;-48
2024/02/07 02:43:06;;;;;;;6.53;1.20;;;;;;;8.73;78.05;100643.63;5088499;28;20033;-51
2024/02/07 02:45:32;;;;;;;11.90;1.40;;;;;;;8.46;78.42;100639.72;5085146;28;20033;-48
2024/02/07 02:47:58;;;;;;;5.03;1.08;;;;;;;8.83;77.69;100632.53;5068879;28;20494;-49
2024/02/07 02:50:26;;;;;;;4.35;1.00;;;;;;;8.60;78.35;100641.69;5072281;28;20028;-49
2024/02/07 02:52:58;;;;;;;7.35;1.02;;;;;;;8.77;78.48;100637.63;5071771;28;20039;-48
2024/02/07 02:55:24;;;;;;;11.30;1.38;;;;;;;8.65;78.20;100640.03;5072984;28;20063;-50
2024/02/07 02:57:50;;;;;;;6.30;0.90;;;;;;;8.30;78.08;100634.16;5072653;28;20448;-53
2024/02/07 03:00:20;;;;;;;6.60;0.93;;;;;;;8.32;78.10;100641.16;5072606;28;20036;-49
2024/02/07 03:02:48;;;;;;;4.30;0.90;;;;;;;8.67;76.97;100636.59;5071748;28;20148;-48
2024/02/07 03:08:16;;;;;;;9.45;1.08;;;;;;;8.60;77.08;100624.34;5071168;28;20055;-50
2024/02/07 03:10:44;;;;;;;11.48;1.30;;;;;;;9.03;76.08;100617.25;5071845;28;20685;-51
2024/02/07 03:13:12;;;;;;;5.00;0.82;;;;;;;8.87;76.22;100613.53;5061927;28;20029;-53
2024/02/07 03:15:39;;;;;;;8.80;1.00;;;;;;;8.70;76.41;100618.47;5063424;28;20032;-51
2024/02/07 03:18:04;;;;;;;7.07;0.82;;;;;;;8.68;76.76;100616.69;5059278;28;20041;-49
2024/02/07 03:20:29;;;;;;;7.95;1.00;;;;;;;8.98;76.45;100616.28;5059995;28;20035;-50
2024/02/07 03:22:55;;;;;;;9.73;1.00;;;;;;;9.06;75.31;100609.50;5061446;28;20115;-51
2024/02/07 03:25:20;;;;;;;11.82;1.00;;;;;;;9.14;75.42;100603.56;5063666;28;20132;-49
2024/02/07 03:27:48;;;;;;;10.32;0.90;;;;;;;9.10;75.42;100608.69;5061939;28;20044;-46
2024/02/07 03:30:16;;;;;;;11.10;0.93;;;;;;;9.23;75.90;100602.81;5059806;28;20037;-47
2024/02/07 03:32:47;;;;;;;7.65;1.00;;;;;;;9.05;75.83;100605.16;5059714;28;20132;-48
2024/02/07 03:35:12;;;;;;;7.78;0.90;;;;;;;8.92;76.69;100598.88;5059423;28;20033;-47
2024/02/07 03:37:41;;;;;;;8.35;1.05;;;;;;;9.00;76.82;100602.47;5059426;28;20037;-47
2024/02/07 03:40:13;;;;;;;10.38;0.93;;;;;;;9.08;76.86;100608.69;5058985;28;20036;-48
2024/02/07 03:42:41;;;;;;;7.00;0.93;;;;;;;9.19;76.26;100599.31;5059707;28;20361;-49
2024/02/07 03:45:07;;;;;;;13.57;1.20;;;;;;;9.19;75.84;100609.72;5062724;28;20029;-47
2024/02/07 03:47:33;;;;;;;8.10;1.30;;;;;;;9.16;76.23;100608.78;5062708;28;20044;-47
2024/02/07 03:49:58;;;;;;;7.15;1.00;;;;;;;9.08;76.59;100603.47;5070168;28;20025;-49
2024/02/07 03:52:24;;;;;;;8.48;1.20;;;;;;;8.79;77.06;100607.31;5071554;28;20028;-48
2024/02/07 03:54:49;;;;;;;9.80;1.27;;;;;;;9.12;76.49;100610.47;5070961;28;20032;-49
2024/02/07 03:57:19;;;;;;;6.93;0.98;;;;;;;9.05;76.85;100606.03;5071362;28;20040;-49
2024/02/07 03:59:45;;;;;;;8.35;1.05;;;;;;;9.38;76.23;100599.56;5061247;28;20091;-47
2024/02/07 04:02:10;;;;;;;8.60;1.00;;;;;;;9.09;76.16;100601.75;5059314;28;20104;-47
2024/02/07 04:04:36;;;;;;;7.35;0.98;;;;;;;9.32;76.60;100598.63;5059835;28;20098;-52
2024/02/07 04:07:01;;;;;;;9.88;1.20;;;;;;;9.05;76.82;100598.22;5061386;28;20036;-52
2024/02/07 04:09:26;;;;;;;9.40;1.42;;;;;;;9.07;76.76;100598.25;5062325;28;20067;-50
2024/02/07 05:16:45;;;;;;;10.02;1.52;;;;;;;9.47;77.16;100634.38;5060961;28;20120;-53
2024/02/07 05:19:11;;;;;;;7.70;1.20;;;;;;;9.68;76.76;100629.47;5058185;28;20033;-49
2024/02/07 05:21:36;;;;;;;5.63;0.98;;;;;;;9.74;76.33;100621.75;5059169;28;20044;-47
2024/02/07 05:24:02;;;;;;;10.50;1.13;;;;;;;9.75;76.61;100626.09;5065544;28;20052;-49
2024/02/07 05:26:30;;;;;;;9.18;1.25;;;;;;;9.61;76.78;100626.78;5065870;28;20433;-47
2024/02/07 05:28:56;;;;;;;7.57;1.25;;;;;;;9.47;77.87;100636.09;5062377;28;20070;-48
2024/02/07 05:31:21;;;;;;;7.32;1.17;;;;;;;9.37;78.11;100648.13;5060112;28;20029;-50
2024/02/07 05:33:46;;;;;;;11.05;1.38;;;;;;;9.58;77.19;100663.16;5058287;28;20127;-49
2024/02/07 05:36:12;;;;;;;11.38;1.73;;;;;;;9.56;76.70;100652.75;5069439;28;20041;-50
2024/02/07 05:38:38;;;;;;;10.80;1.50;;;;;;;9.64;76.77;100647.63;5069032;28;20040;-47
2024/02/07 05:41:03;;;;;;;11.68;1.40;;;;;;;9.73;76.33;100646.03;5069165;28;20074;-49
2024/02/07 05:43:28;;;;;;;5.93;1.33;;;;;;;9.82;76.29;100650.47;5069594;28;20033;-49
2024/02/07 05:45:57;;;;;;;9.68;1.92;;;;;;;9.74;76.41;100654.72;5069074;28;20106;-51
2024/02/07 05:48:22;;;;;;;6.10;1.00;;;;;;;9.63;76.77;100658.91;5068981;28;20025;-51
2024/02/07 05:50:47;;;;;;;9.18;1.65;;;;;;;9.59;77.03;100675.31;5069156;28;20047;-48
2024/02/07 05:53:13;;;;;;;13.80;1.63;;;;;;;9.68;76.65;100676.34;5069426;28;20086;-49
2024/02/07 05:55:38;;;;;;;7.18;1.55;;;;;;;9.77;76.33;100675.56;5069181;28;20402;-50
2024/02/07 05:58:03;;;;;;;9.55;1.58;;;;;;;9.84;76.33;100666.09;5067181;28;20339;-48
2024/02/07 06:00:29;;;;;;;9.77;1.63;;;;;;;9.80;76.17;100675.63;5061059;28;20540;-49
2024/02/07 06:02:54;;;;;;;9.43;1.80;;;;;;;9.88;76.13;100673.97;5057387;28;20522;-48
2024/02/07 06:05:21;;;;;;;10.52;1.30;;;;;;;9.97;76.16;100668.91;5057342;28;20479;-50
2024/02/07 06:07:47;;;;;;;13.98;1.60;;;;;;;9.92;75.90;100664.50;5057356;28;20136;-49
2024/02/07 06:10:13;;;;;;;11.05;1.60;;;;;;;9.94;76.25;100670.59;5060672;28;20456;-53
2024/02/07 06:12:42;;;;;;;17.17;2.38;;;;;;;9.96;76.15;100656.72;5060771;28;20044;-48
2024/02/07 06:15:08;;;;;;;15.77;2.00;;;;;;;9.90;76.04;100664.47;5052445;28;20033;-49
2024/02/07 06:17:33;;;;;;;12.07;1.55;;;;;;;10.02;75.68;100663.75;5060634;28;20086;-50
2024/02/07 06:19:59;;;;;;;17.73;2.20;;;;;;;9.92;76.20;100672.31;5057676;28;20048;-51
2024/02/07 06:22:25;;;;;;;15.15;1.90;;;;;;;10.01;75.78;100665.47;5059079;28;20037;-49
2024/02/07 06:24:50;;;;;;;11.38;1.65;;;;;;;9.85;75.59;100684.38;5061805;28;20041;-49
2024/02/07 06:27:15;;;;;;;14.25;1.92;;;;;;;9.97;75.72;100684.53;5064452;28;20051;-48
2024/02/07 06:29:41;;;;;;;16.42;2.40;;;;;;;9.94;75.36;100687.06;5064148;28;20468;-49
2024/02/07 06:32:06;;;;;;;11.00;2.38;;;;;;;9.92;75.68;100687.94;5071790;28;20036;-49
2024/02/07 06:34:32;;;;;;;13.20;1.98;;;;;;;9.95;75.04;100690.56;5072662;28;20032;-49
2024/02/07 06:37:00;;;;;;;17.00;2.13;;;;;;;9.95;75.13;100691.44;5072101;28;20056;-51
2024/02/07 06:39:25;;;;;;;17.92;2.15;;;;;;;9.94;75.06;100681.03;5072395;28;20066;-48
2024/02/07 06:41:51;;;;;;;22.30;2.00;;;;;;;9.75;75.28;100672.09;5072002;28;20032;-51
2024/02/07 06:44:16;;;;;;;18.75;2.17;;;;;;;9.82;75.28;100686.91;5072520;28;20093;-51
2024/02/07 06:46:42;;;;;;;20.90;2.63;;;;;;;9.82;75.32;100676.50;5072290;28;20093;-49
2024/02/07 06:49:08;;;;;;;22.75;2.50;;;;;;;9.82;75.04;100681.69;5071449;28;20081;-47
2024/02/07 06:51:33;;;;;;;21.13;2.55;;;;;;;9.79;74.93;100686.88;5069839;28;20028;-48
2024/02/07 06:53:58;;;;;;;15.43;2.30;;;;;;;9.80;74.95;100696.44;5067185;28;20995;-47
2024/02/07 06:56:23;;;;;;;16.70;2.00;;;;;;;9.85;74.48;100696.50;5060362;28;20040;-48
2024/02/07 06:58:49;;;;;;;16.92;2.22;;;;;;;9.76;73.99;100710.25;5060630;28;20115;-50
2024/02/07 07:01:15;;;;;;;23.02;2.83;;;;;;;9.97;74.11;100712.28;5063887;28;20066;-48
2024/02/07 07:03:41;;;;;;;25.70;3.25;;;;;;;9.75;74.24;100725.03;5063915;28;20467;-51
2024/02/07 07:06:06;;;;;;;25.17;2.88;;;;;;;9.52;73.68;100728.13;5059900;28;20078;-49
2024/02/07 07:08:31;;;;;;;24.13;3.08;;;;;;;9.76;74.05;100731.97;5059571;28;20116;-51
2024/02/07 07:10:57;;;;;;;21.50;2.50;;;;;;;9.80;73.95;100734.63;5061679;28;20041;-53
2024/02/07 07:13:22;;;;;;;14.35;1.92;;;;;;;9.83;74.41;100725.13;5063574;28;20397;-50
2024/02/07 07:15:47;;;;;;;16.05;2.40;;;;;;;9.83;74.28;100729.44;5062190;28;20036;-49
2024/02/07 07:18:12;;;;;;;12.70;1.85;;;;;;;9.88;73.83;100720.84;5059774;28;20035;-52
2024/02/07 07:20:38;;;;;;;22.73;2.67;;;;;;;9.76;74.25;100738.91;5060033;28;20513;-50
2024/02/07 07:23:03;;;;;;;25.30;2.92;;;;;;;9.52;75.02;100741.13;5062434;28;20076;-50
2024/02/07 07:25:28;;;;;;;21.92;2.67;;;;;;;9.47;75.02;100748.88;5063406;28;20025;-48
2024/02/07 07:27:54;;;;;;;20.25;2.88;;;;;;;9.56;74.60;100753.38;5060485;28;20055;-50
2024/02/07 07:30:19;;;;;;;18.23;2.42;;;;;;;9.66;75.02;100750.03;5059900;28;20056;-48
2024/02/07 07:32:44;;;;;;;12.55;2.42;;;;;;;9.86;74.32;100730.38;5059633;28;20041;-51
2024/02/07 07:35:10;;;;;;;14.57;2.30;;;;;;;9.97;74.30;100746.16;5061276;28;20032;-48
2024/02/07 07:37:36;;;;;;;17.35;2.50;;;;;;;9.94;74.48;100759.97;5061838;28;20127;-48
2024/02/07 07:40:01;;;;;;;13.85;2.33;;;;;;;9.94;74.33;100746.97;5059593;28;20056;-51
2024/02/07 07:42:27;;;;;;;18.00;2.50;;;;;;;9.95;74.15;100753.94;5060024;28;20037;-51
2024/02/07 07:44:53;;;;;;;19.27;3.05;;;;;;;9.93;74.06;100757.38;5060938;28;20121;-53
2024/02/07 07:47:18;;;;;;;17.45;2.28;;;;;;;9.90;74.29;100757.31;5063180;28;20132;-48
2024/02/07 07:49:43;;;;;;;15.18;2.65;;;;;;;10.03;74.78;100754.91;5062018;28;20106;-46
2024/02/07 07:52:09;;;;;;;20.75;3.20;;;;;;;10.04;74.34;100756.69;5059302;28;20029;-50
2024/02/07 07:54:37;;;;;;;19.77;2.95;;;;;;;10.03;74.27;100754.91;5058319;28;20409;-49
2024/02/07 07:57:03;;;;;;;16.27;2.25;;;;;;;10.00;74.34;100759.22;5061864;28;20040;-50
2024/02/07 07:59:29;;;;;;;18.63;2.42;;;;;;;10.03;74.47;100761.84;5062468;28;20058;-47
2024/02/07 08:01:58;;;;;;;21.42;2.55;;;;;;;10.06;74.38;100759.31;5060692;28;20044;-48
2024/02/07 08:04:24;;;;;;;18.10;2.72;;;;;;;9.87;74.11;100772.91;5059153;28;20536;-52
2024/02/07 08:06:49;;;;;;;25.08;2.80;;;;;;;9.79;74.96;100770.19;5059312;28;20043;-49
2024/02/07 08:09:15;;;;;;;21.88;2.10;;;;;;;10.00;75.09;100767.03;5062207;28;20052;-47
2024/02/07 08:11:41;;;;;;;20.92;2.35;;;;;;;10.09;74.82;100775.84;5062402;28;20060;-48
2024/02/07 08:14:07;;;;;;;11.50;2.00;;;;;;;10.17;74.39;100776.00;5058578;28;20025;-48
2024/02/07 08:16:32;;;;;;;19.30;2.63;;;;;;;10.27;74.20;100784.78;5058967;28;20029;-49
2024/02/07 08:18:57;;;;;;;22.42;2.38;;;;;;;9.84;74.01;100786.75;5060223;28;20036;-50
2024/02/07 08:21:22;;;;;;;20.42;2.80;;;;;;;9.64;74.63;100793.38;5058491;28;20059;-51
2024/02/07 08:23:48;;;;;;;21.42;2.60;;;;;;;9.99;74.70;100789.59;5060744;28;20075;-49
2024/02/07 08:26:13;;;;;;;19.88;2.97;;;;;;;10.09;74.30;100788.00;5060093;28;20078;-46
2024/02/07 08:28:38;;;;;;;23.30;3.20;;;;;;;10.07;74.17;100794.91;5061198;28;20041;-53
2024/02/07 08:31:04;;;;;;;16.52;2.53;;;;;;;10.12;73.85;100785.44;5061753;28;20029;-48
2024/02/07 08:33:29;;;;;;;14.40;2.15;;;;;;;10.31;73.79;100784.84;5060808;28;20603;-47
2024/02/07 08:35:54;;;;;;;13.85;2.42;;;;;;;10.46;73.85;100792.00;5060462;28;20048;-47
2024/02/07 08:38:19;;;;;;;25.45;2.67;;;;;;;10.20;73.36;100788.16;5058136;28;20029;-49
2024/02/07 08:40:45;;;;;;;27.00;2.97;;;;;;;10.26;72.97;100794.31;5056543;28;20064;-51
2024/02/07 08:43:10;;;;;;;13.90;2.70;;;;;;;10.44;72.98;100801.50;5062043;28;20391;-50
2024/02/07 08:45:37;;;;;;;24.35;2.85;;;;;;;10.28;72.80;100804.78;5061982;28;20028;-49
2024/02/07 08:48:04;;;;;;;20.33;2.60;;;;;;;10.51;72.71;100805.94;5058393;28;20171;-50
2024/02/07 08:50:29;;;;;;;12.75;2.47;;;;;;;10.52;72.63;100805.97;5057360;28;20052;-52
2024/02/07 08:52:54;;;;;;;13.65;2.47;;;;;;;10.68;72.83;100803.53;5060049;28;20135;-47
2024/02/07 08:55:20;;;;;;;16.15;2.67;;;;;;;10.82;72.92;100809.78;5061852;28;20030;-50
2024/02/07 08:57:45;;;;;;;15.40;2.95;;;;;;;10.86;72.94;100809.84;5060679;28;20054;-55
2024/02/07 09:00:11;;;;;;;12.10;2.40;;;;;;;10.70;71.96;100823.56;5058214;28;20033;-47
2024/02/07 09:02:36;;;;;;;16.48;2.65;;;;;;;10.61;70.64;100826.09;5058210;28;20453;-48
2024/02/07 09:05:04;;;;;;;15.52;2.70;;;;;;;10.82;71.47;100805.47;5060490;28;20055;-46
2024/02/07 09:07:31;;;;;;;19.55;2.90;;;;;;;11.21;71.83;100797.19;5061101;28;20368;-50
2024/02/07 09:09:57;;;;;;;18.52;3.33;;;;;;;11.22;71.25;100803.28;5058955;28;20036;-49
2024/02/07 09:12:22;;;;;;;20.70;2.85;;;;;;;11.37;71.25;100800.78;5058409;28;20396;-52
2024/02/07 09:14:48;;;;;;;15.00;2.35;;;;;;;11.39;70.97;100807.78;5058768;28;20534;-47
2024/02/07 09:17:13;;;;;;;22.50;2.70;;;;;;;11.53;70.33;100810.50;5061868;28;20028;-48
2024/02/07 09:19:38;;;;;;;17.70;2.40;;;;;;;11.13;67.82;100813.59;5062242;28;20466;-48
2024/02/07 09:22:04;;;;;;;24.05;2.50;;;;;;;11.71;69.67;100796.75;5059194;28;20108;-45
2024/02/07 09:24:29;;;;;;;17.15;3.03;;;;;;;11.73;69.36;100792.38;5059010;28;20051;-48
2024/02/07 09:26:57;;;;;;;13.75;2.63;;;;;;;11.64;68.45;100789.72;5059156;28;20040;-47
2024/02/07 09:29:22;;;;;;;24.92;3.42;;;;;;;11.62;67.66;100791.44;5060909;28;20040;-49
2024/02/07 09:31:48;;;;;;;14.98;2.20;;;;;;;11.46;68.00;100789.56;5059807;28;20055;-49
2024/02/07 09:34:13;;;;;;;16.85;2.15;;;;;;;11.60;67.59;100785.31;5057844;28;20033;-50
2024/02/07 09:36:39;;;;;;;13.43;2.38;;;;;;;11.47;67.51;100788.69;5057507;28;20063;-49
2024/02/07 09:39:05;;;;;;;16.88;2.55;;;;;;;11.62;66.27;100802.75;5059927;28;20041;-47
2024/02/07 09:41:32;;;;;;;19.58;2.53;;;;;;;11.46;65.59;100802.63;5061120;28;20107;-48
2024/02/07 09:43:59;;;;;;;14.88;2.65;;;;;;;11.51;65.44;100806.13;5058283;28;20617;-52
2024/02/07 09:46:26;;;;;;;16.35;2.63;;;;;;;11.48;64.44;100806.09;5057795;28;20037;-52
2024/02/07 09:48:54;;;;;;;17.70;2.55;;;;;;;11.61;64.51;100810.56;5058111;28;20033;-48
2024/02/07 09:51:20;;;;;;;16.20;2.03;;;;;;;11.43;63.72;100805.19;5061112;28;20036;-51
2024/02/07 09:53:46;;;;;;;19.25;2.50;;;;;;;11.01;62.92;100798.72;5060483;28;20037;-52
2024/02/07 09:56:12;;;;;;;19.98;2.50;;;;;;;10.94;63.52;100789.06;5057804;28;20044;-46
2024/02/07 09:58:38;;;;;;;11.30;1.98;;;;;;;11.01;63.30;100796.09;5061229;28;20037;-47
2024/02/07 10:01:06;;;;;;;20.02;2.50;;;;;;;11.42;61.97;100798.22;5064120;28;20102;-51
2024/02/07 10:03:35;;;;;;;17.23;2.47;;;;;;;11.46;61.92;100790.44;5065022;28;20485;-50
2024/02/07 10:06:01;;;;;;;20.00;2.50;;;;;;;11.28;61.71;100795.50;5061652;28;20098;-52
2024/02/07 10:08:27;;;;;;;16.23;2.50;;;;;;;11.44;60.82;100792.16;5060861;28;20041;-52
2024/02/07 10:10:53;;;;;;;13.23;2.30;;;;;;;11.07;60.39;100793.56;5061612;28;20127;-49
2024/02/07 10:13:18;;;;;;;17.70;2.38;;;;;;;10.99;59.55;100796.06;5065000;28;20033;-51
2024/02/07 10:15:45;;;;;;;17.23;2.50;;;;;;;11.38;60.72;100792.09;5064161;28;20039;-48
2024/02/07 10:18:11;;;;;;;18.45;2.35;;;;;;;11.34;60.86;100792.94;5060967;28;20491;-50
2024/02/07 10:20:36;;;;;;;19.45;2.60;;;;;;;11.50;60.19;100805.25;5061397;28;20039;-52
2024/02/07 10:23:08;;;;;;;18.60;2.58;;;;;;;11.57;60.70;100799.22;5063686;28;20036;-50
2024/02/07 10:25:34;;;;;;;21.48;2.95;;;;;;;11.20;60.26;100808.47;5064239;28;20533;-49
2024/02/07 10:28:04;;;;;;;18.58;2.70;;;;;;;11.68;59.50;100799.31;5060175;28;20498;-54
2024/02/07 10:30:30;;;;;;;19.85;2.50;;;;;;;11.78;60.43;100804.63;5061255;28;20441;-53
2024/02/07 10:32:55;;;;;;;17.25;2.78;;;;;;;12.30;59.85;100793.66;5062268;28;20045;-51
2024/02/07 10:35:21;;;;;;;17.52;2.60;;;;;;;12.33;58.92;100797.13;5063983;28;20052;-51
2024/02/07 10:37:46;;;;;;;18.98;2.90;;;;;;;11.81;60.15;100800.31;5062835;28;20033;-48
2024/02/07 10:40:12;;;;;;;16.70;2.72;;;;;;;11.88;57.56;100800.38;5060868;28;20490;-47
2024/02/07 10:42:39;;;;;;;15.60;2.30;;;;;;;12.03;58.19;100794.34;5061056;28;20036;-48
2024/02/07 10:45:14;;;;;;;15.98;2.47;;;;;;;12.06;56.64;100790.03;5063417;28;20048;-51
2024/02/07 10:47:40;;;;;;;15.25;2.05;;;;;;;12.16;56.42;100796.19;5064159;28;20403;-48
2024/02/07 10:50:09;;;;;;;15.00;2.40;;;;;;;12.23;56.87;100802.31;5060270;28;20029;-49
2024/02/07 10:52:35;;;;;;;12.02;2.30;;;;;;;11.74;57.36;100802.88;5060904;28;20124;-55
2024/02/07 10:55:00;;;;;;;10.38;2.20;;;;;;;12.08;57.23;100803.97;5062842;28;20199;-50
2024/02/07 10:57:35;;;;;;;14.85;2.40;;;;;;;11.87;57.24;100798.63;5064071;28;20035;-48
2024/02/07 11:00:02;;;;;;;12.45;2.25;;;;;;;11.87;56.49;100801.22;5060703;28;20086;-50
2024/02/07 11:02:28;;;;;;;18.67;2.33;;;;;;;11.91;57.53;100802.13;5060242;28;20064;-49
2024/02/07 11:04:53;;;;;;;11.80;2.00;;;;;;;12.21;57.01;100812.75;5061550;28;20068;-51
2024/02/07 11:07:19;;;;;;;19.10;2.10;;;;;;;11.95;56.13;100810.00;5063354;28;20086;-50
2024/02/07 11:09:45;;;;;;;13.07;2.45;;;;;;;12.16;56.97;100812.75;5061397;28;20035;-48
2024/02/07 11:12:12;;;;;;;17.73;2.20;;;;;;;11.91;56.46;100812.56;5060290;28;20028;-48
2024/02/07 11:14:40;;;;;;;17.38;2.20;;;;;;;11.96;54.78;100813.47;5060662;28;20479;-50
2024/02/07 11:17:07;;;;;;;11.35;1.92;;;;;;;12.08;55.46;100813.53;5062952;28;20567;-50
2024/02/07 11:19:33;;;;;;;13.23;1.63;;;;;;;11.52;52.53;100807.91;5063308;28;20024;-48
2024/02/07 11:22:00;;;;;;;14.32;2.08;;;;;;;11.97;53.74;100804.75;5061269;28;20043;-51
2024/02/07 11:24:26;;;;;;;11.35;1.70;;;;;;;11.90;55.44;100800.34;5061112;28;20041;-49
2024/02/07 11:26:51;;;;;;;11.82;1.60;;;;;;;12.01;54.55;100806.56;5061289;28;20040;-47
2024/02/07 11:29:17;;;;;;;15.50;2.05;;;;;;;11.65;52.83;100813.22;5063284;28;20044;-50
2024/02/07 11:31:43;;;;;;;16.50;2.17;;;;;;;11.82;53.00;100807.28;5062707;28;20044;-51
2024/02/07 11:34:08;;;;;;;12.07;2.15;;;;;;;11.55;53.52;100815.75;5059869;28;20487;-52
2024/02/07 11:36:33;;;;;;;11.73;1.63;;;;;;;12.09;52.36;100804.84;5059682;28;20045;-48
2024/02/07 11:38:59;;;;;;;18.05;1.95;;;;;;;11.76;52.26;100814.22;5061438;28;20037;-50
2024/02/07 11:41:24;;;;;;;11.48;1.60;;;;;;;11.99;51.70;100806.53;5062927;28;20041;-50
2024/02/07 11:43:53;;;;;;;15.80;2.00;;;;;;;12.31;51.87;100808.47;5061677;28;20040;-51
2024/02/07 11:46:20;;;;;;;15.23;1.90;;;;;;;12.41;51.76;100792.84;5059529;28;20478;-53
2024/02/07 11:48:53;;;;;;;19.05;1.92;;;;;;;12.50;52.05;100784.16;5058833;28;20041;-53
2024/02/07 11:51:20;;;;;;;13.25;2.08;;;;;;;12.35;51.92;100786.69;5063013;28;20059;-53
2024/02/07 11:53:46;;;;;;;17.33;1.60;;;;;;;12.01;50.96;100776.09;5062344;28;20051;-49
2024/02/07 11:56:13;;;;;;;14.85;2.17;;;;;;;12.37;50.66;100777.13;5059278;28;20040;-50
2024/02/07 11:58:43;;;;;;;11.45;2.03;;;;;;;12.07;51.20;100760.44;5057361;28;20514;-50
2024/02/07 12:01:11;;;;;;;13.63;1.85;;;;;;;12.02;50.70;100766.47;5058712;28;20064;-50
2024/02/07 12:03:40;;;;;;;10.90;1.60;;;;;;;12.17;49.72;100762.22;5059206;28;20058;-51
2024/02/07 12:06:10;;;;;;;13.75;1.77;;;;;;;11.99;50.67;100771.69;5061978;28;20510;-49
2024/02/07 12:08:36;;;;;;;11.68;1.60;;;;;;;12.21;48.85;100763.09;5062233;28;20133;-54
2024/02/07 12:11:05;;;;;;;10.27;1.77;;;;;;;12.23;49.61;100764.00;5059558;28;20059;-55
2024/02/07 12:13:32;;;;;;;12.18;1.70;;;;;;;12.40;48.80;100767.53;5059294;28;20036;-47
2024/02/07 12:16:00;;;;;;;11.00;1.73;;;;;;;12.29;47.80;100761.41;5060851;28;20029;-50
2024/02/07 12:18:26;;;;;;;9.65;1.70;;;;;;;12.53;46.97;100751.03;5061758;28;20036;-50
2024/02/07 12:20:51;;;;;;;12.07;1.30;;;;;;;12.84;45.66;100754.63;5060133;28;20034;-48
2024/02/07 12:23:17;;;;;;;8.50;1.50;;;;;;;13.13;46.24;100756.44;5058944;28;20124;-49
2024/02/07 12:25:42;;;;;;;9.15;1.60;;;;;;;12.58;45.36;100749.31;5058549;28;20083;-53
2024/02/07 12:28:11;;;;;;;8.38;1.50;;;;;;;12.56;44.82;100753.66;5061822;28;20571;-48